BAW997T EDDK-EGLL
Flight info
| Callsign | BAW997T |
|---|---|
| Flight time | 0h 55m |
| Altitude | 36000 |
| Route | NVO3B/31R NVO Y868 NAVAK DCT DENUT L608 LOGAN LOGAN2H |
| Aircraft | A21N/M-SDE3FGHIRWY/LB1 |
Departure
| Time | 2026-04-21 12:03 |
|---|---|
| Airport | Cologne Bonn Airport (EDDK) |
Arrival
| Time | 2026-04-21 12:58 |
|---|---|
| Airport | London Heathrow Airport (EGLL) |
| Time | Latitude | Longitude | Altitude | Speed | Heading |
|---|---|---|---|---|---|
| 2026-04-21 11:25 | 50.88152 | 7.12002 | 229 ft | 0 kts | 216° |
| 2026-04-21 11:45 | 50.88161 | 7.12012 | 230 ft | 2 kts | 216° |
| 2026-04-21 11:45 | 50.88172 | 7.12025 | 230 ft | 1 kts | 216° |
| 2026-04-21 11:46 | 50.88180 | 7.12034 | 230 ft | 2 kts | 201° |
| 2026-04-21 11:46 | 50.88195 | 7.12037 | 230 ft | 2 kts | 173° |
| 2026-04-21 11:46 | 50.88209 | 7.12030 | 230 ft | 2 kts | 146° |
| 2026-04-21 11:46 | 50.88217 | 7.12020 | 230 ft | 0 kts | 129° |
| 2026-04-21 11:47 | 50.88222 | 7.12010 | 230 ft | 0 kts | 126° |
| 2026-04-21 11:50 | 50.88217 | 7.12021 | 230 ft | 2 kts | 126° |
| 2026-04-21 11:50 | 50.88207 | 7.12041 | 230 ft | 2 kts | 127° |
| 2026-04-21 11:50 | 50.88194 | 7.12068 | 231 ft | 3 kts | 127° |
| 2026-04-21 11:50 | 50.88178 | 7.12101 | 232 ft | 3 kts | 128° |
| 2026-04-21 11:51 | 50.88162 | 7.12139 | 233 ft | 4 kts | 124° |
| 2026-04-21 11:51 | 50.88143 | 7.12181 | 234 ft | 4 kts | 126° |
| 2026-04-21 11:51 | 50.88123 | 7.12222 | 235 ft | 4 kts | 127° |
| 2026-04-21 11:51 | 50.88104 | 7.12262 | 236 ft | 4 kts | 128° |
| 2026-04-21 11:52 | 50.88098 | 7.12297 | 237 ft | 2 kts | 93° |
| 2026-04-21 11:52 | 50.88097 | 7.12316 | 237 ft | 1 kts | 93° |
| 2026-04-21 11:52 | 50.88097 | 7.12324 | 237 ft | 0 kts | 93° |
| 2026-04-21 11:52 | 50.88097 | 7.12337 | 237 ft | 2 kts | 96° |
| 2026-04-21 11:53 | 50.88068 | 7.12401 | 238 ft | 11 kts | 137° |
| 2026-04-21 11:53 | 50.88007 | 7.12490 | 241 ft | 11 kts | 137° |
| 2026-04-21 11:53 | 50.87951 | 7.12570 | 242 ft | 10 kts | 137° |
| 2026-04-21 11:53 | 50.87885 | 7.12613 | 242 ft | 10 kts | 183° |
| 2026-04-21 11:54 | 50.87812 | 7.12640 | 243 ft | 11 kts | 143° |
| 2026-04-21 11:54 | 50.87756 | 7.12721 | 244 ft | 10 kts | 138° |
| 2026-04-21 11:54 | 50.87698 | 7.12803 | 244 ft | 11 kts | 137° |
| 2026-04-21 11:54 | 50.87640 | 7.12888 | 244 ft | 11 kts | 137° |
| 2026-04-21 11:55 | 50.87574 | 7.12984 | 245 ft | 13 kts | 137° |
| 2026-04-21 11:55 | 50.87497 | 7.13097 | 245 ft | 16 kts | 137° |
| 2026-04-21 11:55 | 50.87407 | 7.13226 | 246 ft | 18 kts | 137° |
| 2026-04-21 11:55 | 50.87311 | 7.13365 | 247 ft | 19 kts | 137° |
| 2026-04-21 11:56 | 50.87211 | 7.13509 | 248 ft | 19 kts | 137° |
| 2026-04-21 11:56 | 50.87111 | 7.13654 | 250 ft | 19 kts | 137° |
| 2026-04-21 11:56 | 50.87011 | 7.13799 | 253 ft | 19 kts | 138° |
| 2026-04-21 11:56 | 50.86918 | 7.13933 | 255 ft | 17 kts | 137° |
| 2026-04-21 11:57 | 50.86835 | 7.14056 | 258 ft | 15 kts | 137° |
| 2026-04-21 11:57 | 50.86753 | 7.14143 | 260 ft | 13 kts | 166° |
| 2026-04-21 11:57 | 50.86679 | 7.14217 | 263 ft | 11 kts | 137° |
| 2026-04-21 11:57 | 50.86620 | 7.14305 | 265 ft | 13 kts | 137° |
| 2026-04-21 11:58 | 50.86536 | 7.14426 | 267 ft | 18 kts | 137° |
| 2026-04-21 11:58 | 50.86432 | 7.14577 | 271 ft | 20 kts | 137° |
| 2026-04-21 11:58 | 50.86333 | 7.14720 | 274 ft | 18 kts | 137° |
| 2026-04-21 11:58 | 50.86238 | 7.14858 | 277 ft | 18 kts | 137° |
| 2026-04-21 11:59 | 50.86145 | 7.14992 | 280 ft | 18 kts | 137° |
| 2026-04-21 11:59 | 50.86046 | 7.15136 | 282 ft | 20 kts | 137° |
| 2026-04-21 11:59 | 50.85939 | 7.15292 | 285 ft | 21 kts | 137° |
| 2026-04-21 11:59 | 50.85830 | 7.15449 | 287 ft | 21 kts | 137° |
| 2026-04-21 12:00 | 50.85720 | 7.15607 | 290 ft | 21 kts | 137° |
| 2026-04-21 12:00 | 50.85613 | 7.15762 | 293 ft | 20 kts | 137° |
| 2026-04-21 12:00 | 50.85516 | 7.15903 | 296 ft | 13 kts | 137° |
| 2026-04-21 12:00 | 50.85488 | 7.16011 | 298 ft | 10 kts | 59° |
| 2026-04-21 12:01 | 50.85537 | 7.16096 | 300 ft | 9 kts | 47° |
| 2026-04-21 12:01 | 50.85583 | 7.16176 | 302 ft | 10 kts | 47° |
| 2026-04-21 12:01 | 50.85634 | 7.16265 | 303 ft | 10 kts | 48° |
| 2026-04-21 12:01 | 50.85673 | 7.16334 | 304 ft | 4 kts | 46° |
| 2026-04-21 12:02 | 50.85689 | 7.16327 | 304 ft | 4 kts | 318° |
| 2026-04-21 12:02 | 50.86118 | 7.15706 | 292 ft | 111 kts | 317° |
| 2026-04-21 12:02 | 50.86860 | 7.14622 | 279 ft | 172 kts | 319° |
| 2026-04-21 12:03 | 50.87777 | 7.13293 | 842 ft | 180 kts | 320° |
| 2026-04-21 12:03 | 50.88690 | 7.11949 | 1597 ft | 184 kts | 322° |
| 2026-04-21 12:03 | 50.89635 | 7.10637 | 2378 ft | 184 kts | 324° |
| 2026-04-21 12:03 | 50.90551 | 7.09144 | 2887 ft | 201 kts | 306° |
| 2026-04-21 12:04 | 50.91045 | 7.06995 | 3421 ft | 217 kts | 282° |
| 2026-04-21 12:04 | 50.91111 | 7.04537 | 4007 ft | 229 kts | 265° |
| 2026-04-21 12:04 | 50.90711 | 7.02053 | 4536 ft | 245 kts | 252° |
| 2026-04-21 12:04 | 50.90122 | 6.99444 | 5060 ft | 262 kts | 250° |
| 2026-04-21 12:05 | 50.89450 | 6.96633 | 5600 ft | 279 kts | 250° |
| 2026-04-21 12:05 | 50.88782 | 6.93748 | 6343 ft | 287 kts | 250° |
| 2026-04-21 12:05 | 50.88119 | 6.90773 | 7232 ft | 289 kts | 251° |
| 2026-04-21 12:05 | 50.87460 | 6.87745 | 8104 ft | 292 kts | 251° |
| 2026-04-21 12:06 | 50.86803 | 6.84689 | 8951 ft | 295 kts | 251° |
| 2026-04-21 12:06 | 50.86141 | 6.81598 | 9785 ft | 299 kts | 251° |
| 2026-04-21 12:06 | 50.85470 | 6.78469 | 10568 ft | 303 kts | 251° |
| 2026-04-21 12:06 | 50.84768 | 6.75204 | 11082 ft | 318 kts | 251° |
| 2026-04-21 12:07 | 50.84040 | 6.71816 | 11463 ft | 335 kts | 251° |
| 2026-04-21 12:07 | 50.83269 | 6.68228 | 11835 ft | 352 kts | 251° |
| 2026-04-21 12:07 | 50.82605 | 6.64434 | 12420 ft | 362 kts | 259° |
| 2026-04-21 12:07 | 50.82310 | 6.60484 | 13167 ft | 365 kts | 268° |
| 2026-04-21 12:08 | 50.82287 | 6.56490 | 13896 ft | 368 kts | 272° |
| 2026-04-21 12:08 | 50.82335 | 6.52428 | 14610 ft | 372 kts | 273° |
| 2026-04-21 12:08 | 50.82392 | 6.48309 | 15354 ft | 375 kts | 273° |
| 2026-04-21 12:08 | 50.82442 | 6.44240 | 16077 ft | 377 kts | 273° |
| 2026-04-21 12:09 | 50.82485 | 6.40090 | 16792 ft | 379 kts | 273° |
| 2026-04-21 12:09 | 50.82521 | 6.35910 | 17484 ft | 381 kts | 273° |
| 2026-04-21 12:09 | 50.82554 | 6.31715 | 18149 ft | 384 kts | 272° |
| 2026-04-21 12:09 | 50.82584 | 6.27421 | 18807 ft | 387 kts | 272° |
| 2026-04-21 12:10 | 50.82611 | 6.23227 | 19411 ft | 391 kts | 272° |
| 2026-04-21 12:10 | 50.82637 | 6.18914 | 20030 ft | 393 kts | 272° |
| 2026-04-21 12:10 | 50.82661 | 6.14462 | 20667 ft | 396 kts | 272° |
| 2026-04-21 12:10 | 50.82679 | 6.11095 | 21120 ft | 398 kts | 272° |
| 2026-04-21 12:11 | 50.82700 | 6.06656 | 21708 ft | 401 kts | 272° |
| 2026-04-21 12:11 | 50.82719 | 6.02256 | 22293 ft | 403 kts | 272° |
| 2026-04-21 12:11 | 50.82738 | 5.97828 | 22850 ft | 406 kts | 273° |
| 2026-04-21 12:11 | 50.82905 | 5.93378 | 23393 ft | 406 kts | 279° |
| 2026-04-21 12:12 | 50.83363 | 5.89000 | 23936 ft | 407 kts | 285° |
| 2026-04-21 12:12 | 50.84099 | 5.84638 | 24437 ft | 408 kts | 289° |
| 2026-04-21 12:12 | 50.84917 | 5.80352 | 24885 ft | 411 kts | 289° |
| 2026-04-21 12:12 | 50.85753 | 5.76045 | 25332 ft | 413 kts | 289° |
| 2026-04-21 12:13 | 50.86593 | 5.71697 | 25789 ft | 415 kts | 289° |
| 2026-04-21 12:13 | 50.87436 | 5.67302 | 26227 ft | 417 kts | 289° |
| 2026-04-21 12:13 | 50.88274 | 5.62909 | 26622 ft | 419 kts | 289° |
| 2026-04-21 12:13 | 50.89109 | 5.58505 | 27006 ft | 421 kts | 289° |
| 2026-04-21 12:14 | 50.89953 | 5.54046 | 27395 ft | 423 kts | 289° |
| 2026-04-21 12:14 | 50.90788 | 5.49615 | 27759 ft | 425 kts | 289° |
| 2026-04-21 12:14 | 50.91629 | 5.45136 | 28111 ft | 426 kts | 289° |
| 2026-04-21 12:14 | 50.92470 | 5.40646 | 28461 ft | 428 kts | 289° |
| 2026-04-21 12:15 | 50.93319 | 5.36100 | 28794 ft | 430 kts | 289° |
| 2026-04-21 12:15 | 50.94164 | 5.31565 | 29107 ft | 432 kts | 288° |
| 2026-04-21 12:15 | 50.95041 | 5.26848 | 29430 ft | 433 kts | 288° |
| 2026-04-21 12:15 | 50.95858 | 5.22434 | 29748 ft | 435 kts | 288° |
| 2026-04-21 12:16 | 50.96730 | 5.17719 | 30042 ft | 437 kts | 288° |
| 2026-04-21 12:16 | 50.97573 | 5.13148 | 30326 ft | 438 kts | 288° |
| 2026-04-21 12:16 | 50.98414 | 5.08575 | 30698 ft | 437 kts | 289° |
| 2026-04-21 12:16 | 50.99268 | 5.03917 | 31114 ft | 435 kts | 288° |
| 2026-04-21 12:17 | 51.00104 | 4.99347 | 31438 ft | 433 kts | 288° |
| 2026-04-21 12:17 | 51.00936 | 4.94791 | 31758 ft | 431 kts | 288° |
| 2026-04-21 12:17 | 51.01772 | 4.90200 | 32054 ft | 429 kts | 288° |
| 2026-04-21 12:17 | 51.02594 | 4.85668 | 32342 ft | 428 kts | 288° |
| 2026-04-21 12:18 | 51.03408 | 4.81177 | 32602 ft | 427 kts | 288° |
| 2026-04-21 12:18 | 51.04228 | 4.76634 | 32870 ft | 425 kts | 289° |
| 2026-04-21 12:18 | 51.05032 | 4.72172 | 33134 ft | 424 kts | 289° |
| 2026-04-21 12:18 | 51.05844 | 4.67656 | 33384 ft | 423 kts | 289° |
| 2026-04-21 12:19 | 51.06641 | 4.63221 | 33626 ft | 421 kts | 289° |
| 2026-04-21 12:19 | 51.07444 | 4.58729 | 33851 ft | 420 kts | 289° |
| 2026-04-21 12:19 | 51.08236 | 4.54296 | 34048 ft | 420 kts | 289° |
| 2026-04-21 12:19 | 51.09027 | 4.49857 | 34283 ft | 419 kts | 289° |
| 2026-04-21 12:20 | 51.09822 | 4.45388 | 34500 ft | 419 kts | 289° |
| 2026-04-21 12:20 | 51.10612 | 4.40930 | 34662 ft | 420 kts | 289° |
| 2026-04-21 12:20 | 51.11414 | 4.36393 | 34857 ft | 420 kts | 289° |
| 2026-04-21 12:20 | 51.12190 | 4.31995 | 35042 ft | 421 kts | 288° |
| 2026-04-21 12:21 | 51.12973 | 4.27541 | 35195 ft | 422 kts | 288° |
| 2026-04-21 12:21 | 51.13786 | 4.22906 | 35354 ft | 423 kts | 288° |
| 2026-04-21 12:21 | 51.14570 | 4.18428 | 35519 ft | 424 kts | 288° |
| 2026-04-21 12:21 | 51.15330 | 4.14072 | 35693 ft | 424 kts | 288° |
| 2026-04-21 12:22 | 51.16115 | 4.09558 | 35857 ft | 424 kts | 288° |
| 2026-04-21 12:22 | 51.16906 | 4.05001 | 35980 ft | 426 kts | 288° |
| 2026-04-21 12:22 | 51.17686 | 4.00496 | 36078 ft | 427 kts | 288° |
| 2026-04-21 12:22 | 51.18477 | 3.95914 | 36205 ft | 428 kts | 288° |
| 2026-04-21 12:23 | 51.19259 | 3.91367 | 36264 ft | 429 kts | 288° |
| 2026-04-21 12:23 | 51.20824 | 3.82226 | 36276 ft | 429 kts | 288° |
| 2026-04-21 12:24 | 51.22457 | 3.73093 | 36280 ft | 429 kts | 290° |
| 2026-04-21 12:24 | 51.24599 | 3.64241 | 36280 ft | 427 kts | 296° |
| 2026-04-21 12:25 | 51.27296 | 3.55877 | 36283 ft | 425 kts | 302° |
| 2026-04-21 12:25 | 51.30290 | 3.47766 | 36284 ft | 425 kts | 303° |
| 2026-04-21 12:26 | 51.33295 | 3.39591 | 36287 ft | 426 kts | 301° |
| 2026-04-21 12:26 | 51.35871 | 3.31026 | 36291 ft | 427 kts | 294° |
| 2026-04-21 12:27 | 51.38036 | 3.22046 | 36292 ft | 428 kts | 292° |
| 2026-04-21 12:27 | 51.40129 | 3.13151 | 36295 ft | 428 kts | 292° |
| 2026-04-21 12:28 | 51.42230 | 3.04242 | 36288 ft | 427 kts | 292° |
| 2026-04-21 12:28 | 51.44315 | 2.95380 | 36291 ft | 427 kts | 292° |
| 2026-04-21 12:29 | 51.46395 | 2.86482 | 36292 ft | 427 kts | 292° |
| 2026-04-21 12:29 | 51.48469 | 2.77572 | 36297 ft | 427 kts | 292° |
| 2026-04-21 12:30 | 51.50531 | 2.68668 | 36293 ft | 427 kts | 292° |
| 2026-04-21 12:30 | 51.52599 | 2.59693 | 36296 ft | 427 kts | 292° |
| 2026-04-21 12:31 | 51.54646 | 2.50776 | 36299 ft | 426 kts | 292° |
| 2026-04-21 12:31 | 51.56693 | 2.41829 | 35741 ft | 431 kts | 292° |
| 2026-04-21 12:31 | 51.57736 | 2.37256 | 35068 ft | 434 kts | 292° |
| 2026-04-21 12:32 | 51.58729 | 2.32897 | 34463 ft | 434 kts | 292° |
| 2026-04-21 12:32 | 51.59795 | 2.28221 | 33842 ft | 435 kts | 292° |
| 2026-04-21 12:32 | 51.60794 | 2.23830 | 33194 ft | 435 kts | 292° |
| 2026-04-21 12:32 | 51.61860 | 2.19130 | 32488 ft | 435 kts | 292° |
| 2026-04-21 12:33 | 51.62868 | 2.14681 | 31782 ft | 436 kts | 292° |
| 2026-04-21 12:33 | 51.63892 | 2.10144 | 31046 ft | 436 kts | 292° |
| 2026-04-21 12:33 | 51.64929 | 2.05546 | 30305 ft | 436 kts | 292° |
| 2026-04-21 12:33 | 51.65957 | 2.00971 | 29634 ft | 434 kts | 292° |
| 2026-04-21 12:34 | 51.66968 | 1.96454 | 29102 ft | 429 kts | 292° |
| 2026-04-21 12:34 | 51.67966 | 1.91982 | 28539 ft | 426 kts | 292° |
| 2026-04-21 12:34 | 51.68957 | 1.87526 | 27916 ft | 425 kts | 292° |
| 2026-04-21 12:34 | 51.69950 | 1.83058 | 27282 ft | 423 kts | 292° |
| 2026-04-21 12:35 | 51.70936 | 1.78610 | 26644 ft | 423 kts | 291° |
| 2026-04-21 12:35 | 51.71907 | 1.74214 | 26018 ft | 421 kts | 292° |
| 2026-04-21 12:35 | 51.72872 | 1.69831 | 25672 ft | 413 kts | 292° |
| 2026-04-21 12:35 | 51.73823 | 1.65496 | 25444 ft | 402 kts | 291° |
| 2026-04-21 12:36 | 51.74452 | 1.61184 | 25269 ft | 393 kts | 279° |
| 2026-04-21 12:36 | 51.74529 | 1.56735 | 25251 ft | 406 kts | 269° |
| 2026-04-21 12:36 | 51.74278 | 1.52121 | 24825 ft | 427 kts | 266° |
| 2026-04-21 12:36 | 51.73955 | 1.47286 | 24216 ft | 433 kts | 265° |
| 2026-04-21 12:37 | 51.73626 | 1.42531 | 23823 ft | 426 kts | 266° |
| 2026-04-21 12:37 | 51.73302 | 1.37842 | 23298 ft | 422 kts | 266° |
| 2026-04-21 12:37 | 51.72983 | 1.33143 | 22711 ft | 420 kts | 265° |
| 2026-04-21 12:37 | 51.72669 | 1.28415 | 22110 ft | 417 kts | 265° |
| 2026-04-21 12:38 | 51.72376 | 1.24033 | 21567 ft | 415 kts | 265° |
| 2026-04-21 12:38 | 51.72057 | 1.19256 | 20950 ft | 413 kts | 265° |
| 2026-04-21 12:38 | 51.71739 | 1.14510 | 20364 ft | 410 kts | 264° |
| 2026-04-21 12:38 | 51.71440 | 1.10083 | 19823 ft | 407 kts | 264° |
| 2026-04-21 12:39 | 51.71136 | 1.05612 | 19069 ft | 400 kts | 264° |
| 2026-04-21 12:39 | 51.70834 | 1.01204 | 18112 ft | 398 kts | 264° |
| 2026-04-21 12:39 | 51.70529 | 0.96777 | 17167 ft | 393 kts | 264° |
| 2026-04-21 12:39 | 51.70228 | 0.92424 | 16359 ft | 394 kts | 264° |
| 2026-04-21 12:40 | 51.69926 | 0.88065 | 15840 ft | 390 kts | 264° |
| 2026-04-21 12:40 | 51.69626 | 0.83767 | 15339 ft | 387 kts | 264° |
| 2026-04-21 12:40 | 51.69326 | 0.79495 | 14817 ft | 384 kts | 264° |
| 2026-04-21 12:40 | 51.69023 | 0.75218 | 14299 ft | 382 kts | 264° |
| 2026-04-21 12:41 | 51.68724 | 0.71010 | 13792 ft | 379 kts | 264° |
| 2026-04-21 12:41 | 51.68427 | 0.66823 | 13291 ft | 377 kts | 264° |
| 2026-04-21 12:41 | 51.68129 | 0.62641 | 12801 ft | 374 kts | 264° |
| 2026-04-21 12:41 | 51.67832 | 0.58506 | 12295 ft | 372 kts | 264° |
| 2026-04-21 12:42 | 51.67533 | 0.54387 | 11792 ft | 369 kts | 264° |
| 2026-04-21 12:42 | 51.67236 | 0.50308 | 11291 ft | 367 kts | 264° |
| 2026-04-21 12:42 | 51.66936 | 0.46193 | 10781 ft | 365 kts | 264° |
| 2026-04-21 12:42 | 51.66642 | 0.42173 | 10272 ft | 363 kts | 264° |
| 2026-04-21 12:43 | 51.66345 | 0.38138 | 9786 ft | 360 kts | 264° |
| 2026-04-21 12:43 | 51.66051 | 0.34170 | 9317 ft | 358 kts | 263° |
| 2026-04-21 12:43 | 51.65751 | 0.30127 | 8780 ft | 356 kts | 263° |
| 2026-04-21 12:43 | 51.65450 | 0.26121 | 8249 ft | 355 kts | 263° |
| 2026-04-21 12:44 | 51.65162 | 0.22312 | 7729 ft | 353 kts | 263° |
| 2026-04-21 12:44 | 51.64862 | 0.18346 | 7368 ft | 350 kts | 263° |
| 2026-04-21 12:44 | 51.64564 | 0.14358 | 7308 ft | 352 kts | 264° |
| 2026-04-21 12:44 | 51.64334 | 0.10520 | 7303 ft | 353 kts | 265° |
| 2026-04-21 12:45 | 51.64126 | 0.06577 | 7301 ft | 353 kts | 265° |
| 2026-04-21 12:45 | 51.63919 | 0.02634 | 7299 ft | 352 kts | 265° |
| 2026-04-21 12:45 | 51.63715 | -0.01166 | 7294 ft | 334 kts | 265° |
| 2026-04-21 12:45 | 51.63516 | -0.04807 | 7291 ft | 316 kts | 265° |
| 2026-04-21 12:46 | 51.63328 | -0.08195 | 7292 ft | 300 kts | 265° |
| 2026-04-21 12:46 | 51.63139 | -0.11564 | 7237 ft | 300 kts | 265° |
| 2026-04-21 12:46 | 51.62952 | -0.14866 | 7078 ft | 299 kts | 265° |
| 2026-04-21 12:46 | 51.62760 | -0.18210 | 6894 ft | 298 kts | 265° |
| 2026-04-21 12:47 | 51.62570 | -0.21514 | 6718 ft | 298 kts | 265° |
| 2026-04-21 12:47 | 51.62378 | -0.24840 | 6537 ft | 297 kts | 265° |
| 2026-04-21 12:47 | 51.62188 | -0.28111 | 6384 ft | 296 kts | 265° |
| 2026-04-21 12:47 | 51.61994 | -0.31416 | 6236 ft | 296 kts | 265° |
| 2026-04-21 12:48 | 51.61801 | -0.34708 | 6081 ft | 296 kts | 265° |
| 2026-04-21 12:48 | 51.61607 | -0.37986 | 5929 ft | 296 kts | 265° |
| 2026-04-21 12:48 | 51.61411 | -0.41291 | 5777 ft | 295 kts | 265° |
| 2026-04-21 12:48 | 51.61216 | -0.44567 | 5627 ft | 295 kts | 265° |
| 2026-04-21 12:49 | 51.61020 | -0.47843 | 5476 ft | 294 kts | 265° |
| 2026-04-21 12:49 | 51.60824 | -0.51113 | 5325 ft | 294 kts | 265° |
| 2026-04-21 12:49 | 51.60627 | -0.54369 | 5153 ft | 293 kts | 265° |
| 2026-04-21 12:49 | 51.60428 | -0.57640 | 4978 ft | 292 kts | 265° |
| 2026-04-21 12:50 | 51.60230 | -0.60883 | 4803 ft | 292 kts | 265° |
| 2026-04-21 12:50 | 51.60030 | -0.64151 | 4625 ft | 292 kts | 266° |
| 2026-04-21 12:50 | 51.59832 | -0.67380 | 4449 ft | 290 kts | 265° |
| 2026-04-21 12:50 | 51.59629 | -0.70659 | 4262 ft | 281 kts | 265° |
| 2026-04-21 12:51 | 51.59430 | -0.73860 | 4073 ft | 273 kts | 265° |
| 2026-04-21 12:51 | 51.59250 | -0.76246 | 3925 ft | 266 kts | 258° |
| 2026-04-21 12:51 | 51.58416 | -0.78884 | 3702 ft | 255 kts | 221° |
| 2026-04-21 12:51 | 51.57028 | -0.80258 | 3548 ft | 235 kts | 187° |
| 2026-04-21 12:52 | 51.55487 | -0.80360 | 3421 ft | 213 kts | 165° |
| 2026-04-21 12:52 | 51.54042 | -0.80014 | 3332 ft | 209 kts | 163° |
| 2026-04-21 12:52 | 51.52580 | -0.79694 | 3319 ft | 212 kts | 166° |
| 2026-04-21 12:52 | 51.51116 | -0.79463 | 3219 ft | 212 kts | 166° |
| 2026-04-21 12:53 | 51.49755 | -0.78756 | 3100 ft | 199 kts | 141° |
| 2026-04-21 12:53 | 51.48753 | -0.77301 | 3014 ft | 194 kts | 126° |
| 2026-04-21 12:53 | 51.47967 | -0.75630 | 2976 ft | 186 kts | 108° |
| 2026-04-21 12:53 | 51.47683 | -0.73620 | 2992 ft | 182 kts | 92° |
| 2026-04-21 12:54 | 51.47651 | -0.71615 | 2899 ft | 182 kts | 86° |
| 2026-04-21 12:54 | 51.47690 | -0.69577 | 2662 ft | 181 kts | 85° |
| 2026-04-21 12:54 | 51.47718 | -0.67584 | 2420 ft | 177 kts | 86° |
| 2026-04-21 12:54 | 51.47728 | -0.65651 | 2179 ft | 169 kts | 86° |
| 2026-04-21 12:55 | 51.47729 | -0.63861 | 1931 ft | 154 kts | 87° |
| 2026-04-21 12:55 | 51.47723 | -0.62231 | 1714 ft | 138 kts | 86° |
| 2026-04-21 12:55 | 51.47714 | -0.60724 | 1583 ft | 134 kts | 86° |
| 2026-04-21 12:55 | 51.47722 | -0.59236 | 1431 ft | 133 kts | 85° |
| 2026-04-21 12:56 | 51.47728 | -0.57748 | 1250 ft | 133 kts | 86° |
| 2026-04-21 12:56 | 51.47729 | -0.56261 | 1050 ft | 133 kts | 86° |
| 2026-04-21 12:56 | 51.47730 | -0.54797 | 862 ft | 132 kts | 86° |
| 2026-04-21 12:56 | 51.47743 | -0.53325 | 696 ft | 132 kts | 87° |
| 2026-04-21 12:57 | 51.47741 | -0.51845 | 517 ft | 131 kts | 86° |
| 2026-04-21 12:57 | 51.47747 | -0.50381 | 345 ft | 131 kts | 87° |
| 2026-04-21 12:57 | 51.47750 | -0.48924 | 176 ft | 131 kts | 88° |
| 2026-04-21 12:57 | 51.47754 | -0.47495 | 99 ft | 120 kts | 88° |
| 2026-04-21 12:58 | 51.47758 | -0.46406 | 92 ft | 73 kts | 90° |
| 2026-04-21 12:58 | 51.47760 | -0.45845 | 92 ft | 36 kts | 89° |
| 2026-04-21 12:58 | 51.47760 | -0.45587 | 92 ft | 12 kts | 89° |
| 2026-04-21 12:58 | 51.47727 | -0.45478 | 92 ft | 11 kts | 155° |
| 2026-04-21 12:59 | 51.47646 | -0.45468 | 92 ft | 6 kts | 179° |
| 2026-04-21 12:59 | 51.47629 | -0.45468 | 91 ft | 2 kts | 179° |
| 2026-04-21 12:59 | 51.47627 | -0.45468 | 91 ft | 0 kts | 179° |
| 2026-04-21 13:00 | 51.47614 | -0.45468 | 92 ft | 3 kts | 188° |
| 2026-04-21 13:00 | 51.47596 | -0.45508 | 92 ft | 6 kts | 256° |
| 2026-04-21 13:00 | 51.47595 | -0.45606 | 92 ft | 10 kts | 271° |
| 2026-04-21 13:00 | 51.47595 | -0.45744 | 91 ft | 13 kts | 269° |
| 2026-04-21 13:01 | 51.47595 | -0.45904 | 92 ft | 14 kts | 269° |
| 2026-04-21 13:01 | 51.47594 | -0.46069 | 92 ft | 15 kts | 269° |
| 2026-04-21 13:01 | 51.47593 | -0.46241 | 91 ft | 15 kts | 269° |
| 2026-04-21 13:01 | 51.47592 | -0.46417 | 91 ft | 16 kts | 269° |
| 2026-04-21 13:02 | 51.47592 | -0.46600 | 92 ft | 16 kts | 269° |
| 2026-04-21 13:02 | 51.47591 | -0.46726 | 92 ft | 5 kts | 269° |
| 2026-04-21 13:02 | 51.47591 | -0.46776 | 91 ft | 4 kts | 269° |
| 2026-04-21 13:03 | 51.47587 | -0.46842 | 91 ft | 7 kts | 257° |
| 2026-04-21 13:03 | 51.47557 | -0.46925 | 91 ft | 10 kts | 201° |
| 2026-04-21 13:03 | 51.47479 | -0.46909 | 91 ft | 12 kts | 165° |
| 2026-04-21 13:03 | 51.47393 | -0.46874 | 91 ft | 13 kts | 166° |
| 2026-04-21 13:04 | 51.47295 | -0.46867 | 91 ft | 14 kts | 179° |
| 2026-04-21 13:04 | 51.47188 | -0.46866 | 91 ft | 16 kts | 179° |
| 2026-04-21 13:04 | 51.47072 | -0.46866 | 91 ft | 17 kts | 180° |
| 2026-04-21 13:04 | 51.46950 | -0.46865 | 91 ft | 18 kts | 179° |
| 2026-04-21 13:05 | 51.46821 | -0.46863 | 91 ft | 18 kts | 179° |
| 2026-04-21 13:05 | 51.46749 | -0.46826 | 91 ft | 11 kts | 105° |
| 2026-04-21 13:05 | 51.46747 | -0.46698 | 91 ft | 11 kts | 89° |
| 2026-04-21 13:05 | 51.46748 | -0.46565 | 91 ft | 12 kts | 89° |
| 2026-04-21 13:06 | 51.46747 | -0.46428 | 91 ft | 12 kts | 90° |
| 2026-04-21 13:06 | 51.46746 | -0.46289 | 91 ft | 12 kts | 89° |
| 2026-04-21 13:06 | 51.46747 | -0.46148 | 91 ft | 12 kts | 89° |
| 2026-04-21 13:06 | 51.46748 | -0.46003 | 91 ft | 13 kts | 89° |
| 2026-04-21 13:07 | 51.46748 | -0.45856 | 91 ft | 13 kts | 89° |
| 2026-04-21 13:07 | 51.46750 | -0.45753 | 91 ft | 8 kts | 71° |
| 2026-04-21 13:07 | 51.46785 | -0.45732 | 91 ft | 6 kts | 358° |
| 2026-04-21 13:07 | 51.46817 | -0.45732 | 91 ft | 1 kts | 359° |
| 2026-04-21 13:08 | 51.46820 | -0.45732 | 91 ft | 0 kts | 360° |